Time;durP1;ratioP1;P1;durP2;ratioP2;P2;SDS_P1;SDS_P2;PMS_P1;PMS_P2;Temp;Humidity;BMP_temperature;BMP_pressure;BME280_temperature;BME280_humidity;BME280_pressure;Samples;Min_cycle;Max_cycle;Signal;HPM_P1;HPM_P2
2022/03/21 00:03:42;;;;;;;17.77;8.52;;;;;;;6.98;39.78;103232.22;10190935;28;20476;-67
2022/03/21 00:08:39;;;;;;;14.70;8.45;;;;;;;7.05;39.90;103227.50;10189979;28;20077;-67
2022/03/21 00:13:36;;;;;;;16.02;8.70;;;;;;;6.84;41.03;103237.03;10190947;28;20077;-67
2022/03/21 00:18:34;;;;;;;14.07;8.18;;;;;;;6.87;40.41;103225.72;10189958;28;20085;-67
2022/03/21 00:23:31;;;;;;;17.15;9.40;;;;;;;6.77;40.75;103219.97;10189445;28;20045;-67
2022/03/21 00:28:27;;;;;;;14.63;8.80;;;;;;;6.58;42.53;103231.97;10190531;28;20156;-67
2022/03/21 00:33:23;;;;;;;14.52;8.23;;;;;;;6.64;41.10;103237.31;10189809;28;20126;-66
2022/03/21 00:38:21;;;;;;;14.18;9.02;;;;;;;6.66;40.86;103245.22;10189023;28;20076;-66
2022/03/21 00:43:23;;;;;;;14.13;9.02;;;;;;;6.55;41.69;103243.31;10189699;28;20064;-66
2022/03/21 00:48:21;;;;;;;13.93;8.63;;;;;;;6.58;41.65;103237.41;10189527;28;20088;-66
2022/03/21 00:53:18;;;;;;;16.30;8.68;;;;;;;6.58;42.46;103231.97;10189381;28;20108;-66
2022/03/21 00:58:16;;;;;;;14.23;7.93;;;;;;;6.47;43.36;103249.88;10188479;28;20088;-66
2022/03/21 01:03:13;;;;;;;14.23;8.57;;;;;;;6.47;42.09;103241.72;10188524;28;20169;-66
2022/03/21 01:08:09;;;;;;;15.02;9.18;;;;;;;6.36;42.95;103237.03;10189402;28;20042;-66
2022/03/21 01:13:06;;;;;;;17.55;9.00;;;;;;;6.37;42.07;103242.25;10187922;28;20045;-66
2022/03/21 01:18:03;;;;;;;14.93;8.90;;;;;;;6.27;44.07;103242.78;10186839;28;20054;-66
2022/03/21 01:22:59;;;;;;;16.98;8.45;;;;;;;6.16;44.06;103240.00;10188233;28;20100;-66
2022/03/21 01:27:56;;;;;;;14.95;8.38;;;;;;;6.10;43.61;103236.28;10188241;28;20473;-66
2022/03/21 01:32:52;;;;;;;14.10;8.20;;;;;;;6.11;46.41;103255.09;10188817;28;20121;-67
2022/03/21 01:37:48;;;;;;;12.43;7.60;;;;;;;6.15;44.29;103252.75;10187692;28;20129;-67
2022/03/21 01:42:47;;;;;;;16.35;9.23;;;;;;;5.91;44.79;103257.13;10189096;28;20069;-66
2022/03/21 01:47:46;;;;;;;15.23;8.02;;;;;;;5.91;45.56;103238.13;10186621;28;20038;-66
2022/03/21 01:52:43;;;;;;;14.20;7.63;;;;;;;5.75;46.40;103234.09;10188717;28;20048;-67
2022/03/21 01:57:40;;;;;;;14.32;8.60;;;;;;;5.75;46.19;103236.00;10187698;28;20037;-66
2022/03/21 02:07:48;;;;;;;16.15;8.57;;;;;;;5.77;47.36;103236.59;10883575;22;20042;-68
2022/03/21 02:12:46;;;;;;;17.23;8.88;;;;;;;5.73;47.22;103241.63;10185621;28;20422;-68
2022/03/21 02:17:45;;;;;;;13.73;8.20;;;;;;;5.64;50.35;103243.84;10156265;28;20068;-67
2022/03/21 02:22:44;;;;;;;12.95;7.65;;;;;;;5.57;49.22;103240.34;10149374;28;20038;-68
2022/03/21 02:27:42;;;;;;;14.60;8.43;;;;;;;5.47;53.25;103237.28;10130634;28;20078;-67
2022/03/21 02:32:40;;;;;;;15.63;8.63;;;;;;;5.44;53.90;103240.47;10137259;28;20839;-67
2022/03/21 02:37:41;;;;;;;14.68;8.07;;;;;;;5.39;54.59;103234.88;10153597;28;20108;-67
2022/03/21 02:42:37;;;;;;;14.27;7.70;;;;;;;5.28;56.16;103234.50;10154426;28;20496;-68
2022/03/21 02:47:34;;;;;;;16.02;9.13;;;;;;;5.17;52.40;103240.63;10152896;28;20050;-67
2022/03/21 02:52:31;;;;;;;15.50;8.40;;;;;;;5.15;55.90;103234.63;10153556;28;20081;-67
2022/03/21 02:57:31;;;;;;;14.75;9.10;;;;;;;5.10;55.72;103237.16;10150106;28;20093;-67
2022/03/21 03:02:27;;;;;;;16.48;8.45;;;;;;;4.96;52.73;103232.88;10150872;28;20096;-66
2022/03/21 03:07:24;;;;;;;17.00;9.32;;;;;;;5.06;53.66;103227.81;10144838;28;20365;-68
2022/03/21 03:12:21;;;;;;;17.77;8.50;;;;;;;5.03;52.42;103230.94;10153511;28;20078;-67
2022/03/21 03:17:17;;;;;;;16.40;8.48;;;;;;;4.81;53.81;103222.34;10151554;28;20073;-67
2022/03/21 03:22:16;;;;;;;14.90;8.80;;;;;;;4.72;54.87;103232.59;10153295;28;20053;-67
2022/03/21 03:27:12;;;;;;;16.48;9.02;;;;;;;4.94;54.43;103226.81;10137375;28;20077;-67
2022/03/21 03:32:09;;;;;;;13.60;8.43;;;;;;;4.81;55.10;103242.13;10150306;28;20504;-68
2022/03/21 03:37:07;;;;;;;15.20;8.27;;;;;;;4.92;53.06;103242.47;10148341;28;20070;-67
2022/03/21 03:42:04;;;;;;;17.02;8.90;;;;;;;4.91;54.46;103243.53;10149654;28;20042;-67
2022/03/21 03:47:00;;;;;;;16.92;8.65;;;;;;;4.98;52.28;103233.47;10149041;28;20130;-67
2022/03/21 03:51:57;;;;;;;21.35;9.23;;;;;;;4.94;52.02;103226.81;10146690;28;20042;-67
2022/03/21 03:56:53;;;;;;;15.23;8.90;;;;;;;4.72;55.42;103232.59;10149278;28;20073;-67
2022/03/21 04:01:51;;;;;;;20.08;10.18;;;;;;;4.61;54.93;103234.09;10145070;28;20126;-67
2022/03/21 04:06:47;;;;;;;14.27;8.82;;;;;;;4.66;57.77;103241.56;10148855;28;20080;-67
2022/03/21 04:11:44;;;;;;;19.13;9.30;;;;;;;4.56;60.01;103246.66;10143700;28;20066;-67
2022/03/21 04:16:44;;;;;;;15.32;9.93;;;;;;;4.55;58.43;103234.97;10150412;28;20101;-67
2022/03/21 04:21:40;;;;;;;14.90;8.77;;;;;;;4.50;61.56;103242.06;10146108;28;20043;-67
2022/03/21 04:26:37;;;;;;;15.40;9.88;;;;;;;4.38;59.18;103242.75;10146647;28;20511;-67
2022/03/21 04:31:36;;;;;;;14.07;9.20;;;;;;;4.30;58.79;103248.41;10151270;28;20418;-67
2022/03/21 04:36:33;;;;;;;20.45;9.50;;;;;;;4.45;56.46;103250.03;10146042;28;20100;-67
2022/03/21 04:41:30;;;;;;;15.70;9.15;;;;;;;4.47;55.92;103253.34;10142155;28;20058;-68
2022/03/21 04:46:27;;;;;;;17.42;9.63;;;;;;;4.43;58.47;103259.22;10150934;28;20729;-68
2022/03/21 04:51:23;;;;;;;14.52;9.07;;;;;;;4.34;57.07;103265.91;10152328;28;20088;-68
2022/03/21 04:56:20;;;;;;;15.88;9.15;;;;;;;4.36;59.41;103258.41;10150585;28;20132;-68
2022/03/21 05:01:16;;;;;;;15.27;9.00;;;;;;;4.40;55.47;103259.63;10151688;28;20125;-68
2022/03/21 05:06:16;;;;;;;15.48;9.27;;;;;;;4.48;60.56;103261.28;10145914;28;20506;-68
2022/03/21 05:11:13;;;;;;;17.83;8.98;;;;;;;4.25;66.77;103264.47;10157680;28;20459;-66
2022/03/21 05:16:09;;;;;;;14.90;8.68;;;;;;;4.10;66.41;103275.53;10163026;28;20050;-67
2022/03/21 05:21:06;;;;;;;18.17;9.85;;;;;;;4.08;70.54;103265.97;10151659;28;20054;-67
2022/03/21 05:31:18;;;;;;;16.98;8.90;;;;;;;4.32;62.14;103286.94;10146804;28;20058;-67
2022/03/21 05:36:14;;;;;;;17.85;8.88;;;;;;;4.33;64.59;103277.75;10148181;28;20043;-68
2022/03/21 05:41:11;;;;;;;17.83;9.23;;;;;;;4.22;63.49;103273.84;10147306;28;20886;-67
2022/03/21 05:46:08;;;;;;;17.48;9.43;;;;;;;4.26;59.62;103279.66;10146889;28;20077;-67
2022/03/21 05:51:05;;;;;;;20.83;10.25;;;;;;;4.20;60.60;103280.50;10150766;28;20050;-68
2022/03/21 05:56:02;;;;;;;17.20;9.35;;;;;;;4.04;62.13;103270.13;10148280;28;20439;-67
2022/03/21 06:00:59;;;;;;;17.38;9.43;;;;;;;4.21;59.05;103282.19;10156671;28;20085;-67
2022/03/21 06:05:57;;;;;;;16.75;9.15;;;;;;;4.18;62.57;103277.19;10156512;28;20054;-67
2022/03/21 06:11:03;;;;;;;17.63;10.15;;;;;;;4.05;65.92;103285.34;10157668;28;20074;-67
2022/03/21 06:16:03;;;;;;;17.73;10.05;;;;;;;4.18;61.80;103293.44;10156864;28;20046;-67
2022/03/21 06:21:01;;;;;;;18.92;9.45;;;;;;;4.17;60.72;103292.59;10157217;28;20522;-67
2022/03/21 06:25:58;;;;;;;16.20;9.25;;;;;;;4.18;60.28;103298.88;10153110;28;20046;-68
2022/03/21 06:30:56;;;;;;;17.23;9.95;;;;;;;4.17;59.19;103298.00;10134935;28;20058;-67
2022/03/21 06:35:54;;;;;;;17.02;10.15;;;;;;;4.22;60.60;103306.34;10139253;28;20065;-68
2022/03/21 06:40:51;;;;;;;18.55;9.70;;;;;;;4.31;59.28;103309.66;10156746;28;20073;-67
2022/03/21 06:45:50;;;;;;;17.02;9.52;;;;;;;4.29;65.84;103309.03;10154652;28;20066;-67
2022/03/21 06:50:48;;;;;;;18.83;9.48;;;;;;;4.38;60.94;103313.16;10156589;28;20038;-66
2022/03/21 06:55:45;;;;;;;17.67;9.85;;;;;;;4.45;63.50;103315.03;10155040;28;20070;-67
2022/03/21 07:00:43;;;;;;;18.55;10.10;;;;;;;4.56;56.20;103333.34;10156290;28;20069;-67
2022/03/21 07:05:40;;;;;;;16.15;9.90;;;;;;;4.67;56.26;103335.41;10150205;28;20211;-67
2022/03/21 07:10:40;;;;;;;19.55;9.70;;;;;;;4.73;53.74;103339.13;10155827;28;20558;-67
2022/03/21 07:15:37;;;;;;;17.60;10.30;;;;;;;4.76;53.92;103336.81;10154119;28;20081;-67
2022/03/21 07:20:34;;;;;;;15.60;9.57;;;;;;;4.90;52.64;103334.03;10155984;28;20085;-67
2022/03/21 07:25:30;;;;;;;15.02;8.57;;;;;;;4.95;52.48;103323.41;10154155;28;20652;-67
2022/03/21 07:30:27;;;;;;;15.38;9.77;;;;;;;5.02;50.88;103326.91;10150290;28;20520;-67
2022/03/21 07:35:24;;;;;;;15.45;9.73;;;;;;;5.06;51.05;103333.56;10133644;28;20709;-67
2022/03/21 07:40:20;;;;;;;16.05;9.50;;;;;;;5.16;51.12;103339.34;10143188;28;20134;-67
2022/03/21 07:50:32;;;;;;;16.77;9.43;;;;;;;5.27;50.38;103333.22;10139049;28;20081;-67
2022/03/21 07:55:31;;;;;;;21.02;9.82;;;;;;;5.43;50.64;103340.03;10153463;28;20046;-67
2022/03/21 08:00:28;;;;;;;16.90;9.95;;;;;;;5.59;49.95;103344.09;10130188;28;20046;-67
2022/03/21 08:05:28;;;;;;;17.80;11.10;;;;;;;5.65;48.67;103345.91;10157004;28;20051;-67
2022/03/21 08:10:25;;;;;;;14.98;9.75;;;;;;;5.77;49.83;103346.03;10129824;28;20100;-67
2022/03/21 08:15:22;;;;;;;17.65;10.05;;;;;;;5.95;48.99;103342.56;10149389;28;20109;-67
2022/03/21 08:20:20;;;;;;;14.57;9.50;;;;;;;6.07;48.93;103335.34;10160044;28;20060;-67
2022/03/21 08:25:18;;;;;;;17.02;10.02;;;;;;;6.18;48.28;103339.22;10154116;28;20050;-67
2022/03/21 08:30:16;;;;;;;17.23;10.98;;;;;;;6.32;48.24;103338.03;10145257;28;20047;-67
2022/03/21 08:35:16;;;;;;;16.25;10.32;;;;;;;6.34;48.25;103340.53;10130225;28;20054;-67
2022/03/21 08:40:14;;;;;;;16.63;10.07;;;;;;;6.52;48.71;103326.97;10152490;28;20111;-67
2022/03/21 08:45:12;;;;;;;16.95;9.63;;;;;;;6.61;49.51;103318.50;10151963;28;20555;-68
2022/03/21 08:50:10;;;;;;;16.63;9.80;;;;;;;6.80;47.54;103322.88;10152110;28;20112;-68
2022/03/21 08:55:07;;;;;;;15.60;9.65;;;;;;;6.98;47.59;103318.44;10151806;28;20468;-67
2022/03/21 09:00:06;;;;;;;15.15;9.82;;;;;;;7.16;46.83;103313.78;10151754;28;20050;-68
2022/03/21 09:05:05;;;;;;;19.00;10.98;;;;;;;7.28;45.90;103305.66;10151303;28;20054;-67
2022/03/21 09:10:02;;;;;;;15.43;10.05;;;;;;;7.64;46.06;103309.31;10151794;28;20054;-68
2022/03/21 09:14:59;;;;;;;15.60;8.95;;;;;;;7.93;46.06;103304.00;10149720;28;20046;-67
2022/03/21 09:19:55;;;;;;;17.25;9.70;;;;;;;8.16;45.47;103303.97;10151381;28;20077;-67
2022/03/21 09:24:52;;;;;;;18.00;10.02;;;;;;;8.33;45.06;103297.78;10149910;28;20074;-67
2022/03/21 09:29:49;;;;;;;18.88;10.02;;;;;;;8.49;43.37;103296.25;10151071;28;20496;-67
2022/03/21 09:34:45;;;;;;;17.17;9.90;;;;;;;8.68;43.53;103291.47;10135672;28;20687;-67
2022/03/21 09:39:42;;;;;;;15.65;10.15;;;;;;;8.83;43.13;103286.31;10159160;28;20050;-67
2022/03/21 09:44:38;;;;;;;16.23;9.73;;;;;;;8.96;42.79;103290.66;10157623;28;20548;-67
2022/03/21 09:49:35;;;;;;;17.58;10.50;;;;;;;9.16;42.15;103296.47;10158579;28;20077;-67
2022/03/21 09:54:32;;;;;;;16.02;10.48;;;;;;;9.36;42.09;103295.22;10158072;28;20459;-67
2022/03/21 09:59:31;;;;;;;14.15;9.60;;;;;;;9.52;40.69;103290.84;10157662;28;20133;-67
2022/03/21 10:04:27;;;;;;;17.45;9.95;;;;;;;9.74;40.90;103297.19;10157893;28;20043;-67
2022/03/21 10:09:25;;;;;;;15.45;10.15;;;;;;;9.92;39.84;103289.81;10146662;28;20105;-67
2022/03/21 10:14:24;;;;;;;18.30;10.18;;;;;;;10.04;40.42;103296.00;10154970;28;20746;-67
2022/03/21 10:19:21;;;;;;;17.15;9.82;;;;;;;10.36;40.10;103284.44;10141322;28;20509;-67
2022/03/21 10:24:18;;;;;;;17.85;10.48;;;;;;;10.58;38.09;103279.78;10125071;28;20054;-67
2022/03/21 10:29:15;;;;;;;14.60;9.85;;;;;;;10.77;38.78;103276.72;10154144;28;20145;-67
2022/03/21 10:34:16;;;;;;;22.38;10.25;;;;;;;10.93;37.83;103281.28;10154436;28;20141;-67
2022/03/21 10:39:13;;;;;;;17.70;10.27;;;;;;;10.97;37.78;103285.16;10153895;28;20050;-67
2022/03/21 10:44:14;;;;;;;16.27;10.73;;;;;;;11.33;36.71;103280.03;10148109;28;20043;-67
2022/03/21 10:49:10;;;;;;;15.93;10.05;;;;;;;11.53;35.84;103268.41;10152343;28;20074;-66
2022/03/21 10:54:07;;;;;;;16.83;10.57;;;;;;;11.72;36.21;103266.94;10142049;28;20078;-67
2022/03/21 10:59:04;;;;;;;18.58;10.77;;;;;;;12.18;36.48;103263.66;10153541;28;20047;-67
2022/03/21 11:04:02;;;;;;;15.80;10.50;;;;;;;12.33;35.35;103266.47;10133699;28;20077;-67
2022/03/21 11:09:00;;;;;;;16.75;11.20;;;;;;;12.64;35.02;103267.41;10107279;28;1127832;-67
2022/03/21 11:13:57;;;;;;;20.50;10.90;;;;;;;13.10;34.52;103258.47;10123221;28;20054;-67
2022/03/21 11:18:59;;;;;;;17.20;10.93;;;;;;;13.07;33.22;103259.00;10154688;28;20130;-68
2022/03/21 11:23:56;;;;;;;17.05;9.95;;;;;;;13.30;32.88;103257.69;10155138;28;20042;-67
2022/03/21 11:29:00;;;;;;;14.38;10.82;;;;;;;13.61;32.88;103263.16;10154131;28;20082;-67
2022/03/21 11:34:29;;;;;;;16.90;11.13;;;;;;;13.63;32.35;103267.28;10151099;28;20414;-67
2022/03/21 11:39:27;;;;;;;16.00;10.60;;;;;;;14.04;31.91;103250.72;10154177;28;20108;-68
2022/03/21 11:44:23;;;;;;;16.20;11.32;;;;;;;13.93;30.91;103260.09;10153775;28;20093;-67
2022/03/21 11:49:20;;;;;;;15.90;10.70;;;;;;;14.43;30.58;103257.44;10154106;28;20142;-67
2022/03/21 11:54:32;;;;;;;14.10;9.85;;;;;;;14.58;31.34;103251.91;10161045;28;20062;-67
2022/03/21 11:59:32;;;;;;;18.25;10.63;;;;;;;14.94;30.05;103240.66;10153694;28;20051;-67
2022/03/21 12:04:31;;;;;;;14.85;10.32;;;;;;;15.46;29.71;103246.59;10152934;28;20576;-67
2022/03/21 12:09:42;;;;;;;16.10;10.20;;;;;;;15.62;28.85;103239.81;10153430;28;20093;-67
2022/03/21 12:14:45;;;;;;;13.35;9.85;;;;;;;16.28;28.86;103234.69;10150305;28;20204;-67
2022/03/21 12:20:08;;;;;;;15.98;10.27;;;;;;;16.99;27.95;103227.38;10152843;28;20137;-67
2022/03/21 12:25:27;;;;;;;14.13;10.82;;;;;;;17.38;26.75;103215.94;10151346;28;20061;-67
2022/03/21 12:30:23;;;;;;;15.80;10.32;;;;;;;17.03;26.45;103212.66;10114740;28;20078;-67
2022/03/21 12:35:32;;;;;;;15.20;10.45;;;;;;;17.48;26.86;103212.16;10151601;28;20046;-67
2022/03/21 12:40:29;;;;;;;17.05;9.75;;;;;;;18.40;26.31;103203.94;10128158;28;20054;-67
2022/03/21 12:45:29;;;;;;;15.90;9.55;;;;;;;18.75;24.95;103209.81;10152004;28;20074;-67
2022/03/21 12:50:27;;;;;;;13.55;9.85;;;;;;;19.27;25.04;103202.72;10151539;28;20050;-67
2022/03/21 12:55:24;;;;;;;15.32;11.05;;;;;;;19.57;24.33;103202.22;10134471;28;20042;-68
2022/03/21 13:00:22;;;;;;;16.23;10.23;;;;;;;19.41;23.99;103205.41;10151908;28;20441;-67
2022/03/21 13:10:33;;;;;;;15.38;9.80;;;;;;;20.13;23.77;103197.88;10147767;28;20050;-67
2022/03/21 13:15:31;;;;;;;13.27;10.05;;;;;;;20.30;23.96;103202.63;10133405;28;20503;-67
2022/03/21 13:20:33;;;;;;;14.77;10.73;;;;;;;20.33;23.14;103197.25;10151728;28;20105;-67
2022/03/21 13:25:35;;;;;;;15.20;10.68;;;;;;;20.83;22.40;103196.00;10149771;28;20057;-67
2022/03/21 13:30:32;;;;;;;14.77;10.13;;;;;;;21.02;21.91;103181.72;10151564;28;20046;-67
2022/03/21 13:35:31;;;;;;;17.67;10.63;;;;;;;20.99;22.09;103187.97;10149697;28;20073;-67
2022/03/21 13:40:29;;;;;;;14.27;10.73;;;;;;;20.84;22.10;103194.88;10151225;28;20691;-67
2022/03/21 13:45:27;;;;;;;20.65;11.23;;;;;;;20.63;21.96;103182.75;10149681;28;20070;-67
2022/03/21 13:50:33;;;;;;;13.05;10.20;;;;;;;20.70;22.17;103178.34;10112074;28;20628;-67
2022/03/21 13:55:29;;;;;;;15.27;10.75;;;;;;;20.50;21.91;103184.53;10130824;28;20566;-67
2022/03/21 14:00:47;;;;;;;13.65;10.68;;;;;;;20.72;21.94;103181.59;10157156;28;20800;-68
2022/03/21 14:05:43;;;;;;;14.13;10.55;;;;;;;20.65;22.53;103186.84;10156126;28;20042;-67
2022/03/21 14:10:45;;;;;;;16.45;11.70;;;;;;;20.34;22.34;103176.66;10149378;28;20069;-67
2022/03/21 14:15:46;;;;;;;14.38;10.55;;;;;;;20.15;22.34;103171.41;10148633;28;20504;-67
2022/03/21 14:20:42;;;;;;;16.48;11.65;;;;;;;20.21;22.58;103174.84;10189509;28;20508;-67
2022/03/21 14:30:56;;;;;;;14.90;10.90;;;;;;;20.09;22.10;103169.09;10157597;28;20456;-67
2022/03/21 14:35:52;;;;;;;14.38;10.73;;;;;;;19.86;23.25;103168.41;10155954;28;20052;-67
2022/03/21 14:40:49;;;;;;;13.65;10.57;;;;;;;19.92;23.04;103165.16;10155785;28;20070;-68
2022/03/21 14:45:45;;;;;;;13.93;11.10;;;;;;;20.19;23.13;103163.25;10138661;28;20520;-69
2022/03/21 14:50:42;;;;;;;15.85;10.70;;;;;;;20.03;22.82;103156.50;10139585;28;20046;-67
2022/03/21 14:55:38;;;;;;;15.40;11.32;;;;;;;19.98;23.45;103165.81;10156094;28;20059;-67
2022/03/21 15:00:40;;;;;;;14.05;11.30;;;;;;;19.76;23.30;103167.56;10135506;28;20509;-67
2022/03/21 15:05:38;;;;;;;14.88;10.68;;;;;;;20.11;24.08;103158.50;10154409;28;20058;-67
2022/03/21 15:10:36;;;;;;;16.55;11.07;;;;;;;20.19;23.35;103157.72;10135117;28;20073;-67
2022/03/21 15:15:32;;;;;;;16.90;11.70;;;;;;;19.91;23.62;103157.97;10163233;28;20152;-67
2022/03/21 15:20:29;;;;;;;15.40;11.45;;;;;;;19.24;23.40;103166.47;10155356;28;20500;-67
2022/03/21 15:25:26;;;;;;;16.55;11.77;;;;;;;18.47;24.33;103162.78;10174063;28;20042;-66
2022/03/21 15:30:37;;;;;;;15.77;11.48;;;;;;;18.21;25.34;103162.56;10114627;28;20102;-66
2022/03/21 15:35:34;;;;;;;15.50;12.07;;;;;;;18.25;25.03;103164.41;10135558;28;20053;-66
2022/03/21 15:45:51;;;;;;;15.40;11.18;;;;;;;18.36;24.73;103159.47;10153536;28;20074;-66
2022/03/21 15:50:48;;;;;;;16.00;10.80;;;;;;;18.57;24.86;103154.25;10144470;28;20507;-66
2022/03/21 15:55:44;;;;;;;16.73;10.90;;;;;;;18.74;24.73;103163.84;10135346;28;20065;-66
2022/03/21 16:00:42;;;;;;;15.93;11.48;;;;;;;18.72;24.47;103159.41;10153514;28;20468;-66
2022/03/21 16:05:47;;;;;;;15.90;10.10;;;;;;;18.82;24.61;103157.56;10152155;28;20124;-66
2022/03/21 16:10:44;;;;;;;14.90;10.95;;;;;;;19.02;24.48;103165.38;10153359;28;20039;-66
2022/03/21 16:15:41;;;;;;;16.27;10.35;;;;;;;18.59;25.98;103165.00;10152061;28;20097;-66
2022/03/21 16:20:40;;;;;;;16.33;10.18;;;;;;;18.54;25.32;103160.41;10153565;28;20473;-67
2022/03/21 16:25:36;;;;;;;18.00;11.43;;;;;;;18.23;24.63;103166.66;10146216;28;20487;-64
2022/03/21 16:30:34;;;;;;;14.25;10.38;;;;;;;17.84;25.44;103162.50;10139697;28;20074;-64
2022/03/21 16:35:31;;;;;;;16.50;11.10;;;;;;;17.66;25.63;103163.38;10143564;28;20042;-64
2022/03/21 16:40:28;;;;;;;15.52;10.70;;;;;;;17.36;26.40;103171.16;10143702;28;20506;-65
2022/03/21 16:45:24;;;;;;;14.13;9.82;;;;;;;17.08;27.29;103163.91;10146403;28;20108;-65
2022/03/21 16:50:21;;;;;;;15.05;11.00;;;;;;;16.61;29.79;103167.38;10142573;28;20126;-67
2022/03/21 16:55:17;;;;;;;14.43;9.75;;;;;;;16.23;29.78;103168.53;10143025;28;20141;-66
2022/03/21 17:00:15;;;;;;;14.43;10.13;;;;;;;15.95;30.44;103171.06;10148988;28;20054;-66
2022/03/21 17:05:14;;;;;;;15.65;10.43;;;;;;;15.72;30.19;103168.03;10149285;28;20092;-66
2022/03/21 17:10:14;;;;;;;16.55;9.52;;;;;;;15.52;28.29;103169.03;10151162;28;20054;-66
2022/03/21 17:15:11;;;;;;;13.65;10.10;;;;;;;15.25;28.81;103169.59;10150403;28;20467;-66
2022/03/21 17:25:24;;;;;;;18.23;9.68;;;;;;;14.74;30.55;103175.53;10149779;28;20116;-66
2022/03/21 17:30:20;;;;;;;17.33;9.40;;;;;;;14.59;32.87;103178.38;10151375;28;20046;-66
2022/03/21 17:35:17;;;;;;;14.57;9.38;;;;;;;14.22;34.93;103174.97;10149089;28;20047;-66
2022/03/21 17:40:14;;;;;;;14.95;9.65;;;;;;;13.96;32.88;103182.50;10150866;28;20109;-66
2022/03/21 17:45:14;;;;;;;13.95;9.15;;;;;;;13.85;36.62;103191.91;10141849;28;20847;-66
2022/03/21 17:50:10;;;;;;;15.43;9.43;;;;;;;13.57;37.80;103180.41;10141137;28;20054;-66
2022/03/21 17:55:09;;;;;;;14.25;9.45;;;;;;;13.30;38.78;103196.41;10132819;28;20055;-66
2022/03/21 18:00:08;;;;;;;16.05;10.20;;;;;;;13.08;39.81;103199.41;10170610;28;20807;-66
2022/03/21 18:05:04;;;;;;;14.32;10.23;;;;;;;12.83;41.28;103207.34;10157067;28;20050;-66
2022/03/21 18:10:01;;;;;;;15.38;10.52;;;;;;;12.67;42.82;103202.94;10142226;28;20058;-66
2022/03/21 18:14:58;;;;;;;17.08;10.60;;;;;;;12.50;42.99;103210.56;10150498;28;20532;-66
2022/03/21 18:19:55;;;;;;;14.05;9.68;;;;;;;12.33;43.75;103206.13;10148548;28;20100;-66
2022/03/21 18:24:56;;;;;;;15.35;9.55;;;;;;;12.20;43.42;103214.84;10150421;28;20046;-66
2022/03/21 18:29:53;;;;;;;18.67;9.90;;;;;;;11.96;45.71;103212.53;10150220;28;20057;-67
2022/03/21 18:34:49;;;;;;;15.43;9.73;;;;;;;11.82;46.11;103216.00;10149563;28;20573;-65
2022/03/21 18:39:47;;;;;;;16.85;9.73;;;;;;;11.76;46.33;103223.38;10153463;28;20058;-64
2022/03/21 18:44:47;;;;;;;17.33;10.02;;;;;;;11.71;45.61;103229.63;10152941;28;20163;-65
2022/03/21 18:49:45;;;;;;;16.95;10.05;;;;;;;11.62;46.35;103233.13;10153571;28;20051;-65
2022/03/21 18:54:43;;;;;;;17.35;9.68;;;;;;;11.49;47.20;103238.00;10166609;28;20697;-65
2022/03/21 18:59:40;;;;;;;18.67;10.40;;;;;;;11.27;48.29;103231.78;10146885;28;20042;-67
2022/03/21 19:04:37;;;;;;;15.10;9.65;;;;;;;11.05;49.29;103238.16;10166440;28;20050;-67
2022/03/21 19:09:35;;;;;;;18.27;10.40;;;;;;;10.96;49.50;103242.47;10142980;28;20074;-67
2022/03/21 19:14:32;;;;;;;18.38;10.52;;;;;;;10.80;46.37;103235.19;10144529;28;20133;-67
2022/03/21 19:19:29;;;;;;;16.30;9.82;;;;;;;10.72;48.59;103242.78;10148229;28;20061;-67
2022/03/21 19:24:25;;;;;;;18.88;10.45;;;;;;;10.58;50.44;103241.50;10152821;28;20094;-66
2022/03/21 19:29:23;;;;;;;16.40;10.15;;;;;;;10.46;50.77;103246.28;10151753;28;20141;-66
2022/03/21 19:34:20;;;;;;;19.02;9.90;;;;;;;10.37;49.05;103240.41;10154257;28;20530;-66
2022/03/21 19:39:16;;;;;;;16.10;9.95;;;;;;;10.30;49.53;103242.53;10139999;28;20046;-65
2022/03/21 19:44:13;;;;;;;18.15;10.52;;;;;;;10.22;51.28;103248.41;10117081;28;20681;-66
2022/03/21 19:49:09;;;;;;;18.98;10.50;;;;;;;10.18;50.30;103252.72;10150603;28;20077;-66
2022/03/21 19:54:06;;;;;;;17.05;10.43;;;;;;;10.08;50.34;103259.72;10136324;28;20520;-67
2022/03/21 19:59:04;;;;;;;18.05;10.45;;;;;;;9.98;52.79;103253.28;10149097;28;20038;-66
2022/03/21 20:04:00;;;;;;;16.40;9.85;;;;;;;9.93;51.82;103256.75;10120996;28;20496;-66
2022/03/21 20:08:57;;;;;;;17.83;10.80;;;;;;;9.84;55.22;103264.56;10152973;28;20038;-66
2022/03/21 20:13:56;;;;;;;17.77;9.50;;;;;;;9.70;53.67;103260.53;10138957;28;20077;-66
2022/03/21 20:18:53;;;;;;;17.95;10.23;;;;;;;9.64;53.77;103265.09;10146120;28;20093;-66
2022/03/21 20:23:49;;;;;;;20.15;10.70;;;;;;;9.62;54.82;103256.31;10152367;28;20412;-66
2022/03/21 20:28:47;;;;;;;18.08;10.82;;;;;;;9.43;53.05;103263.94;10152203;28;20086;-66
2022/03/21 20:33:45;;;;;;;16.65;10.75;;;;;;;9.44;56.29;103260.09;10135625;28;20046;-66
2022/03/21 20:38:41;;;;;;;14.23;9.90;;;;;;;9.32;56.75;103255.81;10136088;28;20142;-66
2022/03/21 20:43:40;;;;;;;16.27;10.82;;;;;;;9.24;56.72;103257.88;10139345;28;20428;-66
2022/03/21 20:48:39;;;;;;;15.75;10.55;;;;;;;9.21;57.18;103260.25;10149069;28;20077;-67
2022/03/21 20:53:36;;;;;;;14.45;10.50;;;;;;;9.08;57.17;103255.97;10152362;28;20049;-66
2022/03/21 20:58:32;;;;;;;18.73;11.30;;;;;;;9.01;57.84;103264.28;10131359;28;20133;-70
2022/03/21 21:03:29;;;;;;;16.90;10.07;;;;;;;9.06;57.19;103264.38;10146842;28;20458;-69
2022/03/21 21:08:26;;;;;;;17.55;10.95;;;;;;;9.04;57.01;103262.97;10156647;28;20085;-66
2022/03/21 21:13:26;;;;;;;15.20;10.00;;;;;;;8.88;60.20;103271.94;10150667;28;21300;-69
2022/03/21 21:18:24;;;;;;;16.58;10.55;;;;;;;8.71;62.59;103266.44;10146924;28;20151;-69
2022/03/21 21:23:22;;;;;;;17.45;10.93;;;;;;;8.63;65.58;103264.91;10137300;28;20046;-69
2022/03/21 21:28:19;;;;;;;17.50;11.55;;;;;;;8.51;66.08;103262.22;10142028;28;20149;-69
2022/03/21 21:33:16;;;;;;;18.65;11.02;;;;;;;8.40;61.18;103261.22;10154984;28;20074;-69
2022/03/21 21:38:12;;;;;;;17.05;9.88;;;;;;;8.35;62.39;103262.94;10147957;28;20038;-70
2022/03/21 21:43:09;;;;;;;19.70;12.30;;;;;;;8.24;66.26;103272.81;10146833;28;20472;-68
2022/03/21 21:48:06;;;;;;;17.20;11.32;;;;;;;8.18;66.26;103258.25;10147861;28;20054;-69
2022/03/21 21:53:03;;;;;;;18.45;10.85;;;;;;;8.10;63.55;103266.81;10146494;28;20042;-68
2022/03/21 21:58:00;;;;;;;20.02;12.20;;;;;;;8.00;70.19;103267.38;10147614;28;20125;-68
2022/03/21 22:02:59;;;;;;;16.60;11.40;;;;;;;7.88;70.78;103269.28;10153225;28;20050;-68
2022/03/21 22:07:56;;;;;;;21.30;12.55;;;;;;;7.83;71.04;103271.06;10153439;28;20081;-68
2022/03/21 22:12:55;;;;;;;18.08;11.88;;;;;;;7.76;73.49;103277.47;10151415;28;20042;-68
2022/03/21 22:17:51;;;;;;;21.58;12.23;;;;;;;7.68;72.97;103277.81;10148950;28;20490;-68
2022/03/21 22:22:48;;;;;;;19.95;11.68;;;;;;;7.59;72.19;103276.50;10148124;28;20046;-70
2022/03/21 22:27:45;;;;;;;19.50;11.13;;;;;;;7.51;72.71;103276.84;10147055;28;20455;-68
2022/03/21 22:32:42;;;;;;;18.20;11.40;;;;;;;7.45;75.61;103269.59;10152650;28;20042;-70
2022/03/21 22:37:39;;;;;;;16.90;10.95;;;;;;;7.40;71.21;103278.47;10152039;28;20081;-69
2022/03/21 22:47:50;;;;;;;16.90;11.63;;;;;;;7.28;74.18;103275.72;10148786;28;20038;-70
2022/03/21 22:52:47;;;;;;;20.00;11.98;;;;;;;7.15;78.74;103275.94;10147984;28;20050;-69
2022/03/21 22:57:43;;;;;;;19.10;12.05;;;;;;;7.11;78.13;103267.41;10145301;28;20042;-68
2022/03/21 23:02:40;;;;;;;19.77;12.15;;;;;;;7.09;77.39;103271.41;10153037;28;20046;-69
2022/03/21 23:07:36;;;;;;;18.95;11.07;;;;;;;7.00;76.89;103272.81;10148604;28;20070;-69
2022/03/21 23:12:33;;;;;;;19.13;12.07;;;;;;;6.86;76.66;103267.53;10155344;28;20058;-69
2022/03/21 23:17:29;;;;;;;20.88;11.55;;;;;;;6.89;79.65;103271.69;10148474;28;20034;-69